Time;durP1;ratioP1;P1;durP2;ratioP2;P2;SDS_P1;SDS_P2;PMS_P1;PMS_P2;Temp;Humidity;BMP_temperature;BMP_pressure;BME280_temperature;BME280_humidity;BME280_pressure;Samples;Min_cycle;Max_cycle;Signal;HPM_P1;HPM_P2
2024/04/24 00:01:11;;;;;;;8.65;2.13;;;;;;;;;;5280597;26;20009;-67
2024/04/24 00:03:37;;;;;;;11.73;2.90;;;;;;;;;;5279686;27;20091;-68
2024/04/24 00:06:03;;;;;;;7.97;2.03;;;;;;;;;;5295212;27;20002;-68
2024/04/24 00:08:28;;;;;;;4.60;1.92;;;;;;;;;;5279247;27;19999;-67
2024/04/24 00:10:54;;;;;;;8.55;1.75;;;;;;;;;;5295324;27;20001;-68
2024/04/24 00:13:19;;;;;;;6.85;2.25;;;;;;;;;;5314099;26;20421;-68
2024/04/24 00:15:44;;;;;;;6.32;2.10;;;;;;;;;;5313444;26;20037;-68
2024/04/24 00:18:10;;;;;;;3.38;1.83;;;;;;;;;;5313548;26;20026;-68
2024/04/24 00:20:35;;;;;;;7.63;2.33;;;;;;;;;;5313435;26;20009;-68
2024/04/24 00:23:02;;;;;;;5.38;1.75;;;;;;;;;;5313345;26;20010;-67
2024/04/24 00:25:27;;;;;;;9.35;2.20;;;;;;;;;;5303281;26;20008;-68
2024/04/24 00:27:56;;;;;;;4.18;2.17;;;;;;;;;;5301306;26;19998;-67
2024/04/24 00:30:22;;;;;;;7.43;2.08;;;;;;;;;;5279432;27;20013;-67
2024/04/24 00:32:47;;;;;;;6.63;2.22;;;;;;;;;;5309299;27;20348;-67
2024/04/24 00:35:12;;;;;;;7.95;3.05;;;;;;;;;;5313742;26;20008;-68
2024/04/24 00:37:38;;;;;;;9.18;2.22;;;;;;;;;;5312709;26;19998;-67
2024/04/24 00:40:04;;;;;;;4.90;1.80;;;;;;;;;;5302538;26;20038;-67
2024/04/24 00:42:29;;;;;;;2.97;1.75;;;;;;;;;;5279177;27;20087;-68
2024/04/24 00:44:55;;;;;;;3.60;1.67;;;;;;;;;;5280703;27;20026;-67
2024/04/24 00:47:21;;;;;;;6.60;2.25;;;;;;;;;;5291207;26;19998;-67
2024/04/24 00:49:47;;;;;;;7.63;2.20;;;;;;;;;;5347656;21;20010;-69
2024/04/24 00:52:13;;;;;;;5.30;1.73;;;;;;;;;;5312775;26;20001;-66
2024/04/24 00:54:38;;;;;;;4.35;1.60;;;;;;;;;;5313114;27;19998;-66
2024/04/24 00:57:03;;;;;;;7.72;2.20;;;;;;;;;;5313445;26;20546;-66
2024/04/24 00:59:29;;;;;;;7.03;1.83;;;;;;;;;;5309147;27;20072;-66
2024/04/24 01:01:54;;;;;;;7.30;2.20;;;;;;;;;;5291136;27;19998;-66
2024/04/24 01:04:20;;;;;;;4.93;1.98;;;;;;;;;;5286594;26;19999;-66
2024/04/24 01:06:45;;;;;;;3.30;2.05;;;;;;;;;;5279492;27;20023;-66
2024/04/24 01:09:10;;;;;;;3.78;2.10;;;;;;;;;;5279340;27;20026;-66
2024/04/24 01:11:35;;;;;;;6.88;1.83;;;;;;;;;;5278747;27;20352;-66
2024/04/24 01:14:02;;;;;;;9.15;2.53;;;;;;;;;;5279300;27;19999;-66
2024/04/24 01:16:33;;;;;;;5.18;2.17;;;;;;;;;;5279342;27;20026;-67
2024/04/24 01:19:01;;;;;;;6.60;1.73;;;;;;;;;;5277543;27;20005;-66
2024/04/24 01:21:44;;;;;;;5.88;1.88;;;;;;;;;;5305990;27;19994;-66
2024/04/24 01:24:21;;;;;;;2.83;1.90;;;;;;;;;;5305605;27;20013;-66
2024/04/24 01:26:47;;;;;;;5.80;1.58;;;;;;;;;;5306004;27;19998;-66
2024/04/24 01:29:13;;;;;;;6.28;1.88;;;;;;;;;;5305896;27;20002;-67
2024/04/24 01:31:39;;;;;;;5.88;1.92;;;;;;;;;;5277395;27;20013;-66
2024/04/24 01:34:04;;;;;;;2.75;1.83;;;;;;;;;;5279061;27;20348;-66
2024/04/24 01:36:29;;;;;;;5.75;1.58;;;;;;;;;;5279116;27;19998;-67
2024/04/24 01:38:54;;;;;;;8.02;2.33;;;;;;;;;;5305019;27;20014;-66
2024/04/24 01:41:20;;;;;;;6.15;1.98;;;;;;;;;;5279023;27;20529;-66
2024/04/24 01:43:45;;;;;;;5.05;2.22;;;;;;;;;;5278951;27;20392;-67
2024/04/24 01:46:10;;;;;;;6.35;2.22;;;;;;;;;;5279135;27;19994;-66
2024/04/24 01:48:36;;;;;;;5.70;1.65;;;;;;;;;;5278739;27;20542;-67
2024/04/24 01:51:01;;;;;;;7.30;2.10;;;;;;;;;;5277964;27;20002;-67
2024/04/24 01:53:26;;;;;;;6.03;2.08;;;;;;;;;;5278803;27;20005;-67
2024/04/24 01:55:51;;;;;;;2.28;1.52;;;;;;;;;;5278581;27;19998;-67
2024/04/24 01:58:17;;;;;;;3.10;2.38;;;;;;;;;;5278739;27;20069;-67
2024/04/24 02:00:42;;;;;;;6.38;1.65;;;;;;;;;;5277990;27;20009;-67
2024/04/24 02:03:07;;;;;;;5.32;1.55;;;;;;;;;;5278630;27;20009;-67
2024/04/24 02:05:33;;;;;;;6.30;2.33;;;;;;;;;;5278558;27;20013;-67
2024/04/24 02:07:59;;;;;;;7.13;2.30;;;;;;;;;;5278565;27;20002;-67
2024/04/24 02:10:24;;;;;;;5.95;3.38;;;;;;;;;;5278414;27;20105;-67
2024/04/24 02:12:49;;;;;;;4.95;2.00;;;;;;;;;;5278557;27;20018;-67
2024/04/24 02:15:15;;;;;;;8.68;2.55;;;;;;;;;;5277846;27;20002;-66
2024/04/24 02:17:40;;;;;;;10.40;2.13;;;;;;;;;;5278419;27;20008;-67
2024/04/24 02:20:05;;;;;;;4.35;2.33;;;;;;;;;;5278627;27;20010;-66
2024/04/24 02:22:30;;;;;;;16.60;2.50;;;;;;;;;;5278237;27;19998;-67
2024/04/24 02:27:39;;;;;;;6.90;2.28;;;;;;;;;;5278327;27;20471;-66
2024/04/24 02:30:05;;;;;;;7.70;2.33;;;;;;;;;;5278177;27;20002;-66
2024/04/24 02:32:30;;;;;;;9.27;2.90;;;;;;;;;;5278111;27;20010;-66
2024/04/24 02:34:56;;;;;;;6.45;2.38;;;;;;;;;;5285824;27;20026;-67
2024/04/24 02:37:21;;;;;;;7.28;2.15;;;;;;;;;;5297417;26;20033;-66
2024/04/24 02:39:46;;;;;;;8.80;2.42;;;;;;;;;;5312017;26;20029;-66
2024/04/24 02:42:12;;;;;;;5.32;2.17;;;;;;;;;;5311735;26;19997;-66
2024/04/24 02:44:37;;;;;;;4.38;1.98;;;;;;;;;;5301350;27;20017;-66
2024/04/24 02:47:02;;;;;;;6.72;2.38;;;;;;;;;;5311936;26;19998;-66
2024/04/24 02:49:27;;;;;;;8.57;2.03;;;;;;;;;;5311260;26;20042;-66
2024/04/24 02:51:53;;;;;;;7.43;2.45;;;;;;;;;;5308541;26;20467;-66
2024/04/24 02:54:18;;;;;;;9.52;2.38;;;;;;;;;;5307829;26;20027;-66
2024/04/24 02:56:43;;;;;;;5.93;2.53;;;;;;;;;;5305050;26;20348;-66
2024/04/24 02:59:08;;;;;;;6.72;2.58;;;;;;;;;;5310641;26;20037;-66
2024/04/24 03:01:34;;;;;;;5.03;2.25;;;;;;;;;;5310443;27;20041;-67
2024/04/24 03:04:00;;;;;;;4.88;2.15;;;;;;;;;;5291890;26;20019;-67
2024/04/24 03:06:26;;;;;;;2.80;1.92;;;;;;;;;;5280214;27;19998;-66
2024/04/24 03:08:51;;;;;;;3.05;1.48;;;;;;;;;;5278947;27;20464;-67
2024/04/24 03:11:16;;;;;;;5.38;1.85;;;;;;;;;;5311042;27;20008;-66
2024/04/24 03:13:42;;;;;;;11.50;2.78;;;;;;;;;;5314857;26;20401;-66
2024/04/24 03:16:07;;;;;;;3.08;2.05;;;;;;;;;;5314859;26;20067;-67
2024/04/24 03:18:32;;;;;;;4.95;1.83;;;;;;;;;;5314854;26;20025;-67
2024/04/24 03:20:57;;;;;;;12.25;4.00;;;;;;;;;;5314400;26;20038;-67
2024/04/24 03:23:23;;;;;;;4.35;2.13;;;;;;;;;;5314761;27;20119;-67
2024/04/24 03:25:48;;;;;;;4.38;2.75;;;;;;;;;;5308572;27;20042;-66
2024/04/24 03:28:13;;;;;;;6.22;2.00;;;;;;;;;;5314917;26;20002;-66
2024/04/24 03:30:38;;;;;;;2.75;1.90;;;;;;;;;;5314269;26;20034;-66
2024/04/24 03:33:04;;;;;;;4.47;2.00;;;;;;;;;;5312388;27;20034;-66
2024/04/24 03:35:29;;;;;;;4.43;1.92;;;;;;;;;;5312945;27;20068;-66
2024/04/24 03:37:54;;;;;;;3.65;2.17;;;;;;;;;;5314636;26;20009;-67
2024/04/24 03:40:20;;;;;;;7.82;2.92;;;;;;;;;;5312875;27;20008;-67
2024/04/24 03:42:45;;;;;;;3.50;2.53;;;;;;;;;;5312288;27;20013;-67
2024/04/24 03:45:10;;;;;;;5.63;2.05;;;;;;;;;;5312653;27;20005;-67
2024/04/24 03:47:36;;;;;;;5.32;2.15;;;;;;;;;;5313016;27;19997;-67
2024/04/24 03:50:01;;;;;;;6.82;2.25;;;;;;;;;;5313775;26;20038;-66
2024/04/24 03:52:26;;;;;;;7.63;2.50;;;;;;;;;;5314434;27;19994;-67
2024/04/24 03:54:51;;;;;;;5.68;2.50;;;;;;;;;;5314451;26;20451;-67
2024/04/24 03:57:17;;;;;;;6.07;2.67;;;;;;;;;;5314679;26;20364;-67
2024/04/24 03:59:42;;;;;;;7.65;2.60;;;;;;;;;;5313593;26;20037;-67
2024/04/24 04:02:07;;;;;;;3.78;2.20;;;;;;;;;;5314178;26;20361;-67
2024/04/24 04:04:32;;;;;;;5.50;2.92;;;;;;;;;;5310469;26;20006;-65
2024/04/24 04:06:58;;;;;;;12.57;3.10;;;;;;;;;;5280101;27;20006;-67
2024/04/24 04:09:23;;;;;;;6.10;2.90;;;;;;;;;;5279777;27;19999;-67
2024/04/24 04:11:48;;;;;;;7.53;2.63;;;;;;;;;;5279281;27;19995;-66
2024/04/24 04:14:14;;;;;;;7.25;3.20;;;;;;;;;;5279649;27;19998;-67
2024/04/24 04:16:39;;;;;;;5.70;2.65;;;;;;;;;;5279765;27;19998;-67
2024/04/24 04:19:04;;;;;;;8.55;3.05;;;;;;;;;;5279362;27;20026;-66
2024/04/24 04:21:29;;;;;;;8.40;3.35;;;;;;;;;;5294495;27;20094;-67
2024/04/24 04:23:55;;;;;;;6.80;3.42;;;;;;;;;;5279565;27;20031;-67
2024/04/24 04:26:20;;;;;;;7.15;3.22;;;;;;;;;;5286069;27;20021;-67
2024/04/24 04:28:45;;;;;;;5.88;2.92;;;;;;;;;;5313753;26;20021;-67
2024/04/24 04:31:10;;;;;;;10.35;3.92;;;;;;;;;;5311718;27;19997;-66
2024/04/24 04:33:36;;;;;;;5.10;3.20;;;;;;;;;;5313118;26;20097;-67
2024/04/24 04:36:05;;;;;;;9.15;3.55;;;;;;;;;;5313668;27;19997;-66
2024/04/24 04:38:31;;;;;;;11.10;4.00;;;;;;;;;;5313515;26;20006;-67
2024/04/24 04:40:56;;;;;;;10.68;3.35;;;;;;;;;;5312830;26;20383;-67
2024/04/24 04:43:21;;;;;;;8.75;3.72;;;;;;;;;;5313465;26;20476;-67
2024/04/24 04:45:47;;;;;;;7.35;3.33;;;;;;;;;;5313086;26;20026;-67
2024/04/24 04:48:12;;;;;;;10.55;4.38;;;;;;;;;;5313043;26;20375;-66
2024/04/24 04:50:37;;;;;;;12.55;4.25;;;;;;;;;;5313616;26;19998;-67
2024/04/24 04:53:03;;;;;;;13.05;4.55;;;;;;;;;;5313155;26;20480;-67
2024/04/24 04:55:28;;;;;;;10.60;5.15;;;;;;;;;;5312743;26;20013;-67
2024/04/24 04:57:54;;;;;;;13.77;5.35;;;;;;;;;;5313605;26;19998;-67
2024/04/24 05:00:19;;;;;;;15.30;4.47;;;;;;;;;;5313211;26;20070;-67
2024/04/24 05:02:44;;;;;;;9.50;5.13;;;;;;;;;;5313165;26;20009;-67
2024/04/24 05:05:10;;;;;;;8.90;4.88;;;;;;;;;;5312981;26;20001;-67
2024/04/24 05:07:35;;;;;;;10.50;4.38;;;;;;;;;;5281828;27;20057;-66
2024/04/24 05:10:01;;;;;;;11.27;4.80;;;;;;;;;;5313452;26;20389;-67
2024/04/24 05:12:26;;;;;;;12.40;5.57;;;;;;;;;;5311553;27;20006;-67
2024/04/24 05:14:51;;;;;;;8.10;4.55;;;;;;;;;;5312939;26;20068;-67
2024/04/24 05:17:17;;;;;;;12.38;5.93;;;;;;;;;;5313187;26;19993;-67
2024/04/24 05:19:42;;;;;;;10.45;5.07;;;;;;;;;;5312342;26;20439;-67
2024/04/24 05:22:09;;;;;;;11.27;4.72;;;;;;;;;;5313135;26;20323;-67
2024/04/24 05:24:34;;;;;;;14.57;5.38;;;;;;;;;;5312250;26;20113;-67
2024/04/24 05:29:44;;;;;;;14.40;5.63;;;;;;;;;;5312942;27;20016;-67
2024/04/24 05:32:09;;;;;;;11.82;5.10;;;;;;;;;;5311028;27;20476;-67
2024/04/24 05:34:34;;;;;;;13.93;5.90;;;;;;;;;;5312326;26;20105;-67
2024/04/24 05:37:00;;;;;;;18.08;6.10;;;;;;;;;;5312808;26;20030;-67
2024/04/24 05:39:25;;;;;;;16.30;7.55;;;;;;;;;;5311786;26;20009;-67
2024/04/24 05:41:50;;;;;;;19.45;7.07;;;;;;;;;;5312511;26;20076;-67
2024/04/24 05:44:16;;;;;;;16.90;6.15;;;;;;;;;;5312529;26;20410;-66
2024/04/24 05:46:41;;;;;;;11.23;5.72;;;;;;;;;;5312531;26;20079;-67
2024/04/24 05:49:06;;;;;;;17.25;7.10;;;;;;;;;;5310161;26;20475;-66
2024/04/24 05:51:31;;;;;;;13.93;6.80;;;;;;;;;;5282458;26;20462;-67
2024/04/24 05:53:57;;;;;;;15.73;6.38;;;;;;;;;;5310809;27;20036;-67
2024/04/24 05:56:22;;;;;;;16.35;5.97;;;;;;;;;;5311671;26;20009;-67
2024/04/24 05:58:47;;;;;;;20.75;6.90;;;;;;;;;;5312122;26;19994;-67
2024/04/24 06:01:13;;;;;;;13.93;6.00;;;;;;;;;;5312123;26;20013;-67
2024/04/24 06:03:38;;;;;;;14.65;7.05;;;;;;;;;;5311263;26;20135;-67
2024/04/24 06:06:03;;;;;;;17.73;6.28;;;;;;;;;;5312558;26;19998;-67
2024/04/24 06:08:28;;;;;;;14.45;4.95;;;;;;;;;;5311708;27;20009;-67
2024/04/24 06:10:54;;;;;;;9.77;5.47;;;;;;;;;;5311826;27;20550;-67
2024/04/24 06:13:19;;;;;;;13.77;5.22;;;;;;;;;;5311602;26;20008;-67
2024/04/24 06:15:44;;;;;;;17.05;6.13;;;;;;;;;;5310602;26;20359;-66
2024/04/24 06:18:10;;;;;;;10.88;5.38;;;;;;;;;;5308242;26;20029;-67
2024/04/24 06:20:35;;;;;;;14.07;5.50;;;;;;;;;;5311209;26;20101;-67
2024/04/24 06:23:00;;;;;;;12.05;5.07;;;;;;;;;;5290036;26;20539;-67
2024/04/24 06:25:25;;;;;;;13.23;5.97;;;;;;;;;;5276650;27;20371;-67
2024/04/24 06:27:51;;;;;;;12.02;4.75;;;;;;;;;;5285394;27;20068;-67
2024/04/24 06:30:16;;;;;;;8.82;4.50;;;;;;;;;;5312242;26;20001;-69
2024/04/24 06:32:41;;;;;;;10.73;4.90;;;;;;;;;;5310685;26;20013;-69
2024/04/24 06:35:07;;;;;;;9.57;4.75;;;;;;;;;;5311658;26;20005;-69
2024/04/24 06:37:32;;;;;;;11.55;4.75;;;;;;;;;;5313154;26;20378;-69
2024/04/24 06:39:57;;;;;;;12.63;4.72;;;;;;;;;;5308660;26;19997;-69
2024/04/24 06:42:22;;;;;;;12.30;4.50;;;;;;;;;;5314961;26;19996;-69
2024/04/24 06:44:48;;;;;;;9.50;4.13;;;;;;;;;;5314381;26;20376;-69
2024/04/24 06:47:13;;;;;;;12.38;4.57;;;;;;;;;;5315051;26;20049;-69
2024/04/24 06:49:39;;;;;;;9.02;5.00;;;;;;;;;;5370374;21;20013;-68
2024/04/24 06:52:04;;;;;;;10.18;4.45;;;;;;;;;;5303059;27;20011;-68
2024/04/24 06:54:30;;;;;;;8.05;3.53;;;;;;;;;;5327799;26;20008;-68
2024/04/24 06:56:56;;;;;;;9.30;4.57;;;;;;;;;;5313151;27;19997;-68
2024/04/24 06:59:22;;;;;;;7.47;4.55;;;;;;;;;;5314599;27;20068;-68
2024/04/24 07:01:47;;;;;;;8.88;4.05;;;;;;;;;;5312866;27;20005;-67
2024/04/24 07:04:13;;;;;;;10.18;5.00;;;;;;;;;;5314753;26;20343;-68
2024/04/24 07:06:38;;;;;;;14.10;5.55;;;;;;;;;;5290518;26;20012;-68
2024/04/24 07:09:03;;;;;;;11.10;5.07;;;;;;;;;;5279652;27;20027;-67
2024/04/24 07:11:28;;;;;;;10.02;4.22;;;;;;;;;;5295662;27;19999;-67
2024/04/24 07:13:54;;;;;;;8.18;3.63;;;;;;;;;;5280494;27;20097;-67
2024/04/24 07:16:19;;;;;;;6.75;3.80;;;;;;;;;;5285309;27;20077;-67
2024/04/24 07:18:44;;;;;;;7.30;3.97;;;;;;;;;;5313318;27;20003;-67
2024/04/24 07:21:10;;;;;;;6.07;3.40;;;;;;;;;;5314345;26;20001;-67
2024/04/24 07:23:35;;;;;;;12.65;4.25;;;;;;;;;;5314740;26;20030;-67
2024/04/24 07:26:00;;;;;;;7.90;4.60;;;;;;;;;;5314326;26;20072;-67
2024/04/24 07:28:25;;;;;;;10.75;4.53;;;;;;;;;;5314969;26;20029;-67
2024/04/24 07:30:51;;;;;;;12.60;4.78;;;;;;;;;;5315112;26;20378;-67
2024/04/24 07:33:16;;;;;;;8.60;4.43;;;;;;;;;;5314136;27;20068;-67
2024/04/24 07:35:43;;;;;;;10.45;3.97;;;;;;;;;;5314565;26;19993;-67
2024/04/24 07:38:10;;;;;;;7.63;3.72;;;;;;;;;;5312435;27;19994;-67
2024/04/24 07:40:36;;;;;;;9.90;3.22;;;;;;;;;;5308769;26;20009;-67
2024/04/24 07:43:01;;;;;;;7.82;3.42;;;;;;;;;;5287540;27;20002;-67
2024/04/24 07:45:27;;;;;;;5.28;2.60;;;;;;;;;;5277664;27;19998;-67
2024/04/24 07:47:52;;;;;;;8.23;3.08;;;;;;;;;;5298379;27;20325;-67
2024/04/24 07:50:17;;;;;;;7.88;2.92;;;;;;;;;;5313871;26;20013;-67
2024/04/24 07:52:43;;;;;;;5.90;2.90;;;;;;;;;;5313534;26;19998;-67
2024/04/24 07:55:08;;;;;;;9.50;3.20;;;;;;;;;;5305625;26;19998;-67
2024/04/24 07:57:33;;;;;;;5.22;3.00;;;;;;;;;;5313872;26;20004;-67
2024/04/24 07:59:59;;;;;;;5.10;2.55;;;;;;;;;;5307140;26;20002;-67
2024/04/24 08:02:24;;;;;;;7.00;2.70;;;;;;;;;;5279753;27;20001;-67
2024/04/24 08:04:49;;;;;;;6.63;2.78;;;;;;;;;;5279367;27;19998;-67
2024/04/24 08:07:15;;;;;;;7.93;3.00;;;;;;;;;;5303177;27;20062;-67
2024/04/24 08:09:40;;;;;;;6.38;2.90;;;;;;;;;;5278961;27;20009;-67
2024/04/24 08:12:06;;;;;;;6.45;3.47;;;;;;;;;;5306592;27;20452;-67
2024/04/24 08:14:31;;;;;;;7.35;2.88;;;;;;;;;;5313402;26;20001;-67
2024/04/24 08:16:57;;;;;;;9.93;2.78;;;;;;;;;;5312993;26;19998;-67
2024/04/24 08:19:22;;;;;;;8.68;2.95;;;;;;;;;;5313826;26;20006;-67
2024/04/24 08:21:47;;;;;;;5.78;3.45;;;;;;;;;;5313570;26;20008;-67
2024/04/24 08:24:13;;;;;;;12.70;3.17;;;;;;;;;;5313506;26;20002;-67
2024/04/24 08:26:38;;;;;;;6.40;2.67;;;;;;;;;;5313564;26;20029;-67
2024/04/24 08:29:03;;;;;;;7.65;2.83;;;;;;;;;;5310473;26;20010;-67
2024/04/24 08:31:29;;;;;;;10.25;3.10;;;;;;;;;;5309502;26;20002;-67
2024/04/24 08:33:54;;;;;;;7.45;4.25;;;;;;;;;;5307367;26;20002;-67
2024/04/24 08:36:19;;;;;;;7.38;2.83;;;;;;;;;;5279720;27;19998;-67
2024/04/24 08:38:44;;;;;;;11.48;3.55;;;;;;;;;;5278312;27;20010;-67
2024/04/24 08:41:11;;;;;;;5.28;3.03;;;;;;;;;;5298045;27;19997;-67
2024/04/24 08:43:38;;;;;;;6.93;3.05;;;;;;;;;;5311610;27;20444;-69
2024/04/24 08:46:04;;;;;;;7.60;3.33;;;;;;;;;;5305892;27;20096;-67
2024/04/24 08:48:30;;;;;;;9.20;3.38;;;;;;;;;;5304003;27;20013;-67
2024/04/24 08:50:57;;;;;;;7.15;3.45;;;;;;;;;;5305915;27;20072;-67
2024/04/24 08:53:23;;;;;;;9.20;3.08;;;;;;;;;;5306975;27;20006;-67
2024/04/24 08:55:51;;;;;;;13.95;3.60;;;;;;;;;;5284873;27;20356;-67
2024/04/24 08:58:20;;;;;;;12.68;3.90;;;;;;;;;;5278165;27;20002;-67
2024/04/24 09:00:46;;;;;;;9.73;3.70;;;;;;;;;;5317990;26;20078;-67
2024/04/24 09:03:15;;;;;;;8.27;3.72;;;;;;;;;;5279742;27;19998;-67
2024/04/24 09:05:41;;;;;;;6.05;3.55;;;;;;;;;;5279063;27;20093;-67
2024/04/24 09:08:08;;;;;;;8.82;4.00;;;;;;;;;;5334747;26;20005;-67
2024/04/24 09:10:34;;;;;;;6.32;3.38;;;;;;;;;;5278167;27;19994;-67
2024/04/24 09:13:00;;;;;;;11.07;4.13;;;;;;;;;;5292828;27;20005;-67
2024/04/24 09:15:26;;;;;;;5.72;3.75;;;;;;;;;;5334139;26;20013;-67
2024/04/24 09:17:52;;;;;;;7.50;2.80;;;;;;;;;;5283794;27;20040;-67
2024/04/24 09:20:17;;;;;;;9.10;3.08;;;;;;;;;;5310899;27;20005;-67
2024/04/24 09:22:45;;;;;;;7.80;2.85;;;;;;;;;;5269098;27;20006;-68
2024/04/24 09:25:11;;;;;;;6.50;3.25;;;;;;;;;;5300080;27;20469;-67
2024/04/24 09:27:36;;;;;;;5.72;3.10;;;;;;;;;;5303705;27;19998;-67
2024/04/24 09:30:01;;;;;;;12.98;3.53;;;;;;;;;;5306163;26;20439;-67
2024/04/24 09:32:27;;;;;;;9.43;3.00;;;;;;;;;;5298464;27;20466;-67
2024/04/24 09:34:52;;;;;;;6.18;2.95;;;;;;;;;;5296289;27;20005;-67
2024/04/24 09:37:17;;;;;;;10.77;3.78;;;;;;;;;;5303342;26;20013;-67
2024/04/24 09:39:44;;;;;;;10.65;4.22;;;;;;;;;;5303243;27;20013;-67
2024/04/24 09:42:10;;;;;;;5.60;3.10;;;;;;;;;;5296132;27;20403;-67
2024/04/24 09:44:42;;;;;;;9.02;3.35;;;;;;;;;;5294299;27;19994;-67
2024/04/24 09:47:07;;;;;;;8.35;3.30;;;;;;;;;;5295163;27;20038;-67
2024/04/24 09:49:36;;;;;;;6.22;2.78;;;;;;;;;;5303697;27;19994;-67
2024/04/24 09:52:01;;;;;;;7.60;3.10;;;;;;;;;;5305916;27;20012;-67
2024/04/24 09:54:27;;;;;;;10.45;3.00;;;;;;;;;;5302100;26;20002;-67
2024/04/24 09:56:56;;;;;;;9.00;3.63;;;;;;;;;;5304994;26;20010;-67
2024/04/24 09:59:27;;;;;;;7.68;3.00;;;;;;;;;;5306513;27;19998;-67
2024/04/24 10:01:53;;;;;;;12.60;3.67;;;;;;;;;;5310830;26;20428;-67
2024/04/24 10:04:19;;;;;;;6.43;3.13;;;;;;;;;;5310618;27;20005;-69
2024/04/24 10:06:45;;;;;;;10.45;3.00;;;;;;;;;;5309966;27;19998;-67
2024/04/24 10:09:12;;;;;;;9.00;3.00;;;;;;;;;;5307462;26;20014;-67
2024/04/24 10:11:48;;;;;;;7.28;3.08;;;;;;;;;;5305054;27;20002;-67
2024/04/24 10:14:14;;;;;;;7.40;3.28;;;;;;;;;;5300869;27;20001;-66
2024/04/24 10:16:41;;;;;;;9.10;2.75;;;;;;;;;;5305160;27;19999;-67
2024/04/24 10:19:07;;;;;;;8.77;2.78;;;;;;;;;;5299736;27;20005;-66
2024/04/24 10:21:32;;;;;;;4.22;2.25;;;;;;;;;;5311001;27;20009;-69
2024/04/24 10:23:59;;;;;;;6.78;3.05;;;;;;;;;;5311659;26;20399;-67
2024/04/24 10:26:25;;;;;;;5.75;2.83;;;;;;;;;;5305453;27;20027;-67
2024/04/24 10:28:51;;;;;;;8.35;3.22;;;;;;;;;;5296687;27;19999;-67
2024/04/24 10:31:16;;;;;;;5.05;2.78;;;;;;;;;;5304889;27;20014;-67
2024/04/24 10:33:42;;;;;;;8.75;3.13;;;;;;;;;;5302051;27;20001;-67
2024/04/24 10:36:07;;;;;;;9.35;2.97;;;;;;;;;;5312407;26;20013;-67
2024/04/24 10:38:33;;;;;;;6.88;2.58;;;;;;;;;;5310216;27;20092;-67
2024/04/24 10:40:58;;;;;;;6.03;2.53;;;;;;;;;;5311132;26;20483;-67
2024/04/24 10:43:24;;;;;;;6.03;2.83;;;;;;;;;;5312345;26;20008;-67
2024/04/24 10:45:53;;;;;;;4.25;2.60;;;;;;;;;;5311685;26;20071;-67
2024/04/24 10:48:19;;;;;;;7.00;2.88;;;;;;;;;;5310007;27;20075;-67
2024/04/24 10:50:46;;;;;;;10.13;3.10;;;;;;;;;;5312133;26;20343;-67
2024/04/24 10:53:14;;;;;;;6.97;2.92;;;;;;;;;;5305548;27;19999;-67
2024/04/24 10:55:51;;;;;;;7.63;3.13;;;;;;;;;;5305679;26;19994;-67
2024/04/24 10:58:19;;;;;;;4.63;2.67;;;;;;;;;;5311623;26;19998;-66
2024/04/24 11:00:45;;;;;;;8.18;2.90;;;;;;;;;;5298489;27;19998;-66
2024/04/24 11:03:11;;;;;;;7.38;3.25;;;;;;;;;;5294093;26;20006;-67
2024/04/24 11:05:37;;;;;;;8.90;2.90;;;;;;;;;;5310077;27;20004;-67
2024/04/24 11:08:04;;;;;;;7.65;2.78;;;;;;;;;;5311945;26;20076;-67
2024/04/24 11:10:31;;;;;;;6.22;3.35;;;;;;;;;;5306939;27;20008;-66
2024/04/24 11:12:56;;;;;;;7.50;3.33;;;;;;;;;;5324211;26;20003;-67
2024/04/24 11:15:26;;;;;;;6.20;3.33;;;;;;;;;;5277049;27;20321;-66
2024/04/24 11:17:51;;;;;;;10.18;3.75;;;;;;;;;;5288963;27;20012;-67
2024/04/24 11:20:21;;;;;;;8.18;3.17;;;;;;;;;;5310144;27;20448;-66
2024/04/24 11:22:47;;;;;;;5.60;3.30;;;;;;;;;;5310113;27;19999;-66
2024/04/24 11:25:13;;;;;;;6.35;3.08;;;;;;;;;;5303724;27;20015;-66
2024/04/24 11:27:39;;;;;;;5.57;2.25;;;;;;;;;;5314090;26;20005;-67
2024/04/24 11:30:09;;;;;;;4.93;2.10;;;;;;;;;;5306277;26;19998;-67
2024/04/24 11:32:35;;;;;;;3.63;2.00;;;;;;;;;;5339714;26;19993;-67
2024/04/24 11:35:00;;;;;;;5.20;2.03;;;;;;;;;;5313416;26;20002;-68
2024/04/24 11:37:26;;;;;;;2.60;1.77;;;;;;;;;;5314084;26;19997;-67
2024/04/24 11:39:51;;;;;;;3.97;2.35;;;;;;;;;;5279123;27;20013;-66
2024/04/24 11:42:16;;;;;;;4.28;2.60;;;;;;;;;;5314255;26;19998;-67
2024/04/24 11:44:42;;;;;;;4.15;2.47;;;;;;;;;;5313209;26;20001;-67
2024/04/24 11:47:07;;;;;;;5.72;2.70;;;;;;;;;;5316856;26;20333;-67
2024/04/24 11:49:32;;;;;;;4.55;2.75;;;;;;;;;;5279897;27;20009;-67
2024/04/24 11:51:58;;;;;;;3.53;2.22;;;;;;;;;;5282038;27;20895;-67
2024/04/24 11:54:27;;;;;;;5.88;2.58;;;;;;;;;;5314277;26;20501;-67
2024/04/24 11:56:52;;;;;;;5.07;2.28;;;;;;;;;;5312213;27;20428;-67
2024/04/24 11:59:21;;;;;;;6.57;2.88;;;;;;;;;;5312566;27;20001;-67
2024/04/24 12:01:47;;;;;;;6.97;2.88;;;;;;;;;;5313783;26;20002;-67
2024/04/24 12:04:12;;;;;;;6.03;2.78;;;;;;;;;;5313537;26;20001;-67
2024/04/24 12:06:42;;;;;;;3.67;2.22;;;;;;;;;;5314233;26;20007;-67
2024/04/24 12:09:10;;;;;;;7.13;2.13;;;;;;;;;;5311942;27;20476;-67
2024/04/24 12:11:42;;;;;;;4.15;2.30;;;;;;;;;;5312352;27;20006;-67
2024/04/24 12:14:10;;;;;;;4.45;2.78;;;;;;;;;;5313301;26;20002;-67
2024/04/24 12:16:35;;;;;;;4.35;2.42;;;;;;;;;;5314025;26;19998;-67
2024/04/24 12:19:01;;;;;;;7.72;2.67;;;;;;;;;;5313833;26;20013;-67
2024/04/24 12:21:26;;;;;;;5.30;2.42;;;;;;;;;;5313646;26;20013;-68
2024/04/24 12:23:51;;;;;;;5.72;1.92;;;;;;;;;;5313869;26;19998;-67
2024/04/24 12:26:16;;;;;;;6.30;2.22;;;;;;;;;;5311189;27;19998;-67
2024/04/24 12:28:42;;;;;;;8.43;2.15;;;;;;;;;;5313641;26;20006;-67
2024/04/24 12:31:07;;;;;;;7.10;2.42;;;;;;;;;;5313760;26;20010;-67
2024/04/24 12:33:35;;;;;;;3.60;2.25;;;;;;;;;;5312871;26;20001;-67
2024/04/24 12:36:00;;;;;;;3.97;2.35;;;;;;;;;;5304807;27;20017;-67
2024/04/24 12:38:25;;;;;;;5.97;2.33;;;;;;;;;;5277414;27;20448;-67
2024/04/24 12:40:50;;;;;;;4.03;2.58;;;;;;;;;;5284579;27;20343;-66
2024/04/24 12:43:16;;;;;;;5.32;2.03;;;;;;;;;;5282803;27;20476;-67
2024/04/24 12:45:43;;;;;;;4.72;2.13;;;;;;;;;;5279024;27;20010;-67
2024/04/24 12:48:08;;;;;;;5.43;2.45;;;;;;;;;;5293324;27;20011;-67
2024/04/24 12:50:34;;;;;;;9.27;2.17;;;;;;;;;;5329627;21;20438;-67
2024/04/24 12:52:59;;;;;;;2.63;2.13;;;;;;;;;;5312223;26;20008;-67
2024/04/24 12:55:25;;;;;;;3.65;2.20;;;;;;;;;;5306830;27;20343;-67
2024/04/24 12:57:50;;;;;;;6.65;2.10;;;;;;;;;;5283199;27;20009;-67
2024/04/24 13:00:15;;;;;;;2.92;1.90;;;;;;;;;;5280210;27;20072;-67
2024/04/24 13:02:41;;;;;;;5.45;2.13;;;;;;;;;;5292130;26;20530;-67
2024/04/24 13:05:06;;;;;;;5.72;2.10;;;;;;;;;;5277589;27;20002;-68
2024/04/24 13:07:32;;;;;;;5.00;2.03;;;;;;;;;;5292561;27;20008;-68
2024/04/24 13:09:57;;;;;;;6.18;2.30;;;;;;;;;;5304377;26;20002;-68
2024/04/24 13:12:22;;;;;;;5.38;2.13;;;;;;;;;;5297046;27;19998;-68
2024/04/24 13:14:47;;;;;;;5.40;2.13;;;;;;;;;;5306880;27;20037;-67
2024/04/24 13:17:13;;;;;;;5.60;2.58;;;;;;;;;;5298813;26;20104;-67
2024/04/24 13:19:38;;;;;;;4.00;2.30;;;;;;;;;;5303944;26;20008;-67
2024/04/24 13:22:06;;;;;;;8.32;2.25;;;;;;;;;;5297287;27;20483;-67
2024/04/24 13:24:31;;;;;;;6.68;2.80;;;;;;;;;;5302314;26;19993;-66
2024/04/24 13:26:57;;;;;;;8.07;3.53;;;;;;;;;;5296570;26;20007;-67
2024/04/24 13:29:23;;;;;;;6.55;3.50;;;;;;;;;;5308969;26;20002;-66
2024/04/24 13:31:48;;;;;;;9.23;4.55;;;;;;;;;;5303903;27;20002;-67
2024/04/24 13:34:14;;;;;;;10.63;4.78;;;;;;;;;;5294169;27;20325;-67
2024/04/24 13:36:39;;;;;;;9.77;4.95;;;;;;;;;;5311359;26;19998;-68
2024/04/24 13:39:04;;;;;;;6.95;4.13;;;;;;;;;;5299843;26;20075;-68
2024/04/24 13:41:31;;;;;;;5.88;3.45;;;;;;;;;;5296909;26;20323;-66
2024/04/24 13:43:56;;;;;;;10.07;4.57;;;;;;;;;;5309382;27;20017;-67
2024/04/24 13:46:22;;;;;;;7.13;4.28;;;;;;;;;;5294755;26;20093;-68
2024/04/24 13:48:47;;;;;;;9.07;4.80;;;;;;;;;;5298640;27;20080;-67
2024/04/24 13:51:12;;;;;;;9.18;5.25;;;;;;;;;;5301807;26;20015;-67
2024/04/24 13:53:38;;;;;;;8.25;5.43;;;;;;;;;;5305941;26;20008;-68
2024/04/24 13:56:03;;;;;;;7.60;4.70;;;;;;;;;;5304983;26;20009;-68
2024/04/24 13:58:29;;;;;;;8.57;4.88;;;;;;;;;;5292039;27;19998;-67
2024/04/24 14:00:54;;;;;;;9.00;4.60;;;;;;;;;;5310460;26;20017;-68
2024/04/24 14:03:20;;;;;;;9.60;4.25;;;;;;;;;;5297747;27;19997;-69
2024/04/24 14:05:48;;;;;;;6.60;3.67;;;;;;;;;;5298399;26;20018;-68
2024/04/24 14:08:14;;;;;;;9.10;3.55;;;;;;;;;;5301241;27;20439;-68
2024/04/24 14:10:40;;;;;;;8.00;3.55;;;;;;;;;;5302795;26;20005;-69
2024/04/24 14:13:05;;;;;;;4.78;2.50;;;;;;;;;;5308073;26;20010;-69
2024/04/24 14:15:31;;;;;;;5.55;2.58;;;;;;;;;;5305153;27;20088;-68
2024/04/24 14:17:56;;;;;;;4.80;2.55;;;;;;;;;;5294749;26;20003;-69
2024/04/24 14:20:21;;;;;;;5.10;3.40;;;;;;;;;;5308067;27;20452;-69
2024/04/24 14:22:47;;;;;;;6.03;3.53;;;;;;;;;;5312685;26;20002;-69
2024/04/24 14:25:12;;;;;;;7.88;3.67;;;;;;;;;;5311308;26;20008;-68
2024/04/24 14:27:37;;;;;;;5.93;3.40;;;;;;;;;;5312242;27;20002;-69
2024/04/24 14:30:03;;;;;;;4.90;3.10;;;;;;;;;;5311997;26;20340;-69
2024/04/24 14:32:28;;;;;;;4.20;2.72;;;;;;;;;;5312260;26;20013;-69
2024/04/24 14:34:54;;;;;;;3.15;2.47;;;;;;;;;;5311194;27;20367;-68
2024/04/24 14:37:19;;;;;;;4.43;2.95;;;;;;;;;;5310191;27;20029;-69